Terminal Aerodrome Forecast
Issued by NWS Louisville, KY

Home | Current Version | Previous Version | Text Only | Print | Product List | Glossary On
Versions: 1 2 3 4 5 6 7 8 9 10 11 12 13 14
000
FTUS43 KLMK 090527
TAFLEX
TAF
KLEX 090527Z 0906/1006 22005KT P6SM BKN250
     FM091500 22014G20KT P6SM BKN050
     FM091800 26015G21KT P6SM VCSH OVC035 PROB30 0920/1001 3SM -SHSN
      OVC021
     FM100100 28011KT P6SM BKN035=

USA.gov is the U.S. government's official web portal to all federal, state and local government web resources and services.